createdAt,value
2023-03-30T00:00:49.762Z,100320.81
2023-03-30T00:05:56.554Z,100331.81
2023-03-30T00:11:06.056Z,100336.06
2023-03-30T00:16:09.641Z,100333.69
2023-03-30T00:21:11.463Z,100327.03
2023-03-30T00:26:13.153Z,100313.94
2023-03-30T00:31:14.552Z,100306.06
2023-03-30T00:36:16.308Z,100299.66
2023-03-30T00:41:17.896Z,100294.00
2023-03-30T00:46:19.276Z,100307.44
2023-03-30T00:51:20.848Z,100292.28
2023-03-30T00:56:27.078Z,100294.91
2023-03-30T01:01:29.287Z,100294.50
2023-03-30T01:06:31.648Z,100294.34
2023-03-30T01:11:33.207Z,100280.88
2023-03-30T01:16:50.337Z,100297.91
2023-03-30T01:21:51.810Z,100315.94
2023-03-30T01:26:54.871Z,100329.94
2023-03-30T01:32:05.753Z,100318.84
2023-03-30T01:37:15.962Z,100305.28
2023-03-30T01:42:38.804Z,100264.34
2023-03-30T01:47:40.158Z,100278.50
2023-03-30T01:52:44.615Z,100268.31
2023-03-30T01:57:50.131Z,100264.00
2023-03-30T02:02:54.477Z,100256.78
2023-03-30T02:08:00.723Z,100243.03
2023-03-30T02:13:02.556Z,100254.34
2023-03-30T02:18:04.957Z,100252.66
2023-03-30T02:23:07.124Z,100237.78
2023-03-30T02:28:08.552Z,100227.00
2023-03-30T02:33:14.021Z,100213.66
2023-03-30T02:38:35.480Z,100226.09
2023-03-30T02:43:45.535Z,100207.25
2023-03-30T02:48:46.835Z,100166.44
2023-03-30T02:53:56.588Z,100101.75
2023-03-30T02:59:07.518Z,100175.88
2023-03-30T03:04:10.214Z,100140.22
2023-03-30T03:09:11.545Z,100150.13
2023-03-30T03:14:12.949Z,100152.25
2023-03-30T03:19:15.917Z,100155.38
2023-03-30T03:24:18.871Z,100155.25
2023-03-30T03:29:20.209Z,100146.72
2023-03-30T03:34:22.155Z,100142.94
2023-03-30T03:39:23.486Z,100136.03
2023-03-30T03:44:24.785Z,100126.09
2023-03-30T03:49:26.327Z,100123.34
2023-03-30T03:54:27.661Z,100128.50
2023-03-30T03:59:29.008Z,100121.66
2023-03-30T04:04:30.401Z,100114.47
2023-03-30T04:09:31.752Z,100106.81
2023-03-30T04:14:34.735Z,100098.13
2023-03-30T04:19:36.088Z,100099.03
2023-03-30T04:24:37.440Z,100102.38
2023-03-30T04:29:40.607Z,100089.25
2023-03-30T04:34:45.018Z,100101.44
2023-03-30T04:39:46.371Z,100095.41
2023-03-30T04:44:50.590Z,100104.59
2023-03-30T04:49:52.565Z,100115.09
2023-03-30T04:54:53.907Z,100104.75
2023-03-30T04:59:55.211Z,100093.41
2023-03-30T05:04:56.515Z,100107.22
2023-03-30T05:09:57.854Z,100097.28
2023-03-30T05:14:59.225Z,100104.91
2023-03-30T05:20:00.678Z,100107.19
2023-03-30T05:25:02.505Z,100123.06
2023-03-30T05:30:04.236Z,100120.31
2023-03-30T05:35:05.658Z,100132.63
2023-03-30T05:40:10.712Z,100140.94
2023-03-30T05:45:12.067Z,100151.44
2023-03-30T05:50:13.398Z,100142.25
2023-03-30T05:55:15.307Z,100135.03
2023-03-30T06:00:16.871Z,100137.38
2023-03-30T06:05:18.431Z,100144.53
2023-03-30T06:10:19.823Z,100146.09
2023-03-30T06:15:21.448Z,100133.53
2023-03-30T06:20:24.496Z,100128.09
2023-03-30T06:25:25.873Z,100155.50
2023-03-30T06:30:27.310Z,100168.88
2023-03-30T06:35:29.168Z,100178.72
2023-03-30T06:40:30.823Z,100186.06
2023-03-30T06:45:32.626Z,100183.25
2023-03-30T06:50:34.113Z,100182.66
2023-03-30T06:55:35.414Z,100184.00
2023-03-30T07:00:37.248Z,100193.44
2023-03-30T07:05:38.652Z,100176.31
2023-03-30T07:10:40.302Z,100188.88
2023-03-30T07:15:41.851Z,100171.75
2023-03-30T07:20:44.042Z,100178.19
2023-03-30T07:25:45.751Z,100162.75
2023-03-30T07:30:47.499Z,100161.63
2023-03-30T07:35:49.987Z,100170.91
2023-03-30T07:40:51.573Z,100182.56
2023-03-30T07:45:52.928Z,100174.75
2023-03-30T07:51:11.076Z,100169.66
2023-03-30T07:56:12.432Z,100185.34
2023-03-30T08:01:13.761Z,100183.53
2023-03-30T08:06:15.596Z,100179.50
2023-03-30T08:11:16.923Z,100173.81
2023-03-30T08:16:18.322Z,100180.22
2023-03-30T08:21:19.673Z,100181.50
2023-03-30T08:26:20.969Z,100179.81
2023-03-30T08:31:22.344Z,100175.31
2023-03-30T08:36:23.809Z,100185.66
2023-03-30T08:41:27.939Z,100183.94
2023-03-30T08:46:30.528Z,100201.63
2023-03-30T08:51:34.082Z,100177.63
2023-03-30T08:56:44.654Z,100187.47
2023-03-30T09:01:49.734Z,100191.00
2023-03-30T09:06:52.701Z,100181.50
2023-03-30T09:11:57.672Z,100167.09
2023-03-30T09:17:04.964Z,100173.88
2023-03-30T09:22:06.966Z,100172.97
2023-03-30T09:27:22.523Z,100182.84
2023-03-30T09:32:32.048Z,100184.09
2023-03-30T09:37:34.404Z,100171.06
2023-03-30T09:42:35.732Z,100214.38
2023-03-30T09:47:38.730Z,100195.28
2023-03-30T09:52:41.561Z,100211.91
2023-03-30T09:57:42.943Z,100219.16
2023-03-30T10:02:54.348Z,100220.22
2023-03-30T10:07:57.313Z,100207.22
2023-03-30T10:13:03.435Z,100215.16
2023-03-30T10:18:27.488Z,100231.41
2023-03-30T10:23:39.955Z,100271.22
2023-03-30T10:28:53.493Z,100340.41
2023-03-30T10:33:57.350Z,100374.66
2023-03-30T10:39:04.994Z,100370.50
2023-03-30T10:44:26.182Z,100378.41
2023-03-30T10:49:39.151Z,100385.63
2023-03-30T10:54:49.813Z,100369.66
2023-03-30T11:00:07.083Z,100386.66
2023-03-30T11:05:12.679Z,100391.88
2023-03-30T11:10:16.825Z,100378.38
2023-03-30T11:15:21.825Z,100387.16
2023-03-30T11:20:28.238Z,100388.75
2023-03-30T11:25:39.815Z,100375.41
2023-03-30T11:30:43.463Z,100384.72
2023-03-30T11:35:51.038Z,100384.97
2023-03-30T11:41:01.400Z,100385.97
2023-03-30T11:46:27.623Z,100391.81
2023-03-30T11:51:31.755Z,100400.50
2023-03-30T11:56:43.007Z,100419.75
2023-03-30T12:01:44.332Z,100399.44
2023-03-30T12:06:57.335Z,100409.19
2023-03-30T12:12:04.718Z,100395.38
2023-03-30T12:17:18.822Z,100390.91
2023-03-30T12:22:24.159Z,100389.44
2023-03-30T12:27:26.490Z,100390.09
2023-03-30T12:32:29.156Z,100396.13
2023-03-30T12:37:35.749Z,100395.00
2023-03-30T12:42:39.579Z,100377.72
2023-03-30T12:47:59.523Z,100383.25
2023-03-30T12:53:13.804Z,100370.91
2023-03-30T12:58:36.616Z,100335.78
2023-03-30T13:03:52.380Z,100320.81
2023-03-30T13:08:54.589Z,100309.88
2023-03-30T13:13:58.623Z,100306.63
2023-03-30T13:19:09.581Z,100313.69
2023-03-30T13:24:32.192Z,100320.03
2023-03-30T13:29:33.525Z,100308.34
2023-03-30T13:34:44.879Z,100311.69
2023-03-30T13:40:08.847Z,100304.13
2023-03-30T13:45:19.604Z,100299.22
2023-03-30T13:50:21.023Z,100310.56
2023-03-30T13:55:33.121Z,100342.91
2023-03-30T14:00:52.565Z,100350.50
2023-03-30T14:05:54.553Z,100335.13
2023-03-30T14:10:56.405Z,100334.53
2023-03-30T14:15:58.369Z,100335.31
2023-03-30T14:21:02.648Z,100319.75
2023-03-30T14:26:06.455Z,100321.50
2023-03-30T14:31:12.236Z,100318.22
2023-03-30T14:36:21.178Z,100295.84
2023-03-30T14:41:23.688Z,100305.59
2023-03-30T14:46:28.044Z,100303.06
2023-03-30T14:51:37.797Z,100301.75
2023-03-30T14:56:39.509Z,100294.16
2023-03-30T15:01:41.868Z,100296.00
2023-03-30T15:06:46.021Z,100277.41
2023-03-30T15:11:52.958Z,100277.81
2023-03-30T15:16:56.024Z,100292.59
2023-03-30T15:22:00.207Z,100310.41
2023-03-30T15:27:03.659Z,100321.50
2023-03-30T15:32:14.041Z,100313.25
2023-03-30T15:37:22.195Z,100316.91
2023-03-30T15:42:24.875Z,100317.97
2023-03-30T15:47:26.273Z,100305.59
2023-03-30T15:52:41.573Z,100301.03
2023-03-30T15:57:45.913Z,100307.19
2023-03-30T16:02:57.875Z,100299.41
2023-03-30T16:07:59.401Z,100297.69
2023-03-30T16:13:01.300Z,100293.34
2023-03-30T16:18:02.784Z,100295.72
2023-03-30T16:23:04.578Z,100295.66
2023-03-30T16:28:05.949Z,100299.22
2023-03-30T16:33:07.344Z,100304.63
2023-03-30T16:38:12.275Z,100308.94
2023-03-30T16:43:13.692Z,100305.47
2023-03-30T16:48:15.207Z,100299.31
2023-03-30T16:53:16.511Z,100303.19
2023-03-30T16:58:17.818Z,100295.63
2023-03-30T17:03:20.328Z,100305.25
2023-03-30T17:08:26.351Z,100306.16
2023-03-30T17:13:28.567Z,100322.41
2023-03-30T17:18:30.024Z,100334.75
2023-03-30T17:23:32.364Z,100335.88
2023-03-30T17:28:34.833Z,100328.94
2023-03-30T17:33:36.231Z,100346.41
2023-03-30T17:38:37.889Z,100346.13
2023-03-30T17:43:39.924Z,100345.88
2023-03-30T17:48:41.377Z,100342.81
2023-03-30T17:53:42.842Z,100347.75
2023-03-30T17:58:44.233Z,100350.81
2023-03-30T18:03:45.631Z,100342.63
2023-03-30T18:08:47.031Z,100347.38
2023-03-30T18:13:48.377Z,100352.72
2023-03-30T18:18:49.711Z,100368.03
2023-03-30T18:23:51.085Z,100367.78
2023-03-30T18:28:52.400Z,100363.22
2023-03-30T18:33:53.887Z,100359.41
2023-03-30T18:38:55.837Z,100359.28
2023-03-30T18:43:57.155Z,100372.56
2023-03-30T18:48:58.450Z,100375.56
2023-03-30T18:53:59.754Z,100383.06
2023-03-30T18:59:06.064Z,100371.59
2023-03-30T19:04:07.415Z,100363.91
2023-03-30T19:09:09.106Z,100353.19
2023-03-30T19:14:11.278Z,100367.34
2023-03-30T19:19:15.334Z,100372.13
2023-03-30T19:24:16.958Z,100362.84
2023-03-30T19:29:18.279Z,100365.53
2023-03-30T19:34:19.578Z,100361.78
2023-03-30T19:39:21.053Z,100351.63
2023-03-30T19:44:23.051Z,100345.94
2023-03-30T19:49:24.490Z,100357.00
2023-03-30T19:54:26.081Z,100342.16
2023-03-30T19:59:28.687Z,100333.94
2023-03-30T20:04:30.398Z,100340.38
2023-03-30T20:09:32.195Z,100333.34
2023-03-30T20:14:34.003Z,100343.25
2023-03-30T20:19:35.501Z,100342.84
2023-03-30T20:24:38.963Z,100329.19
2023-03-30T20:29:40.638Z,100329.78
2023-03-30T20:34:42.452Z,100324.94
2023-03-30T20:39:43.958Z,100335.38
2023-03-30T20:44:50.335Z,100326.84
2023-03-30T20:49:55.506Z,100307.69
2023-03-30T20:54:57.065Z,100318.34
2023-03-30T20:59:58.456Z,100302.31
2023-03-30T21:04:59.853Z,100299.31
2023-03-30T21:10:01.172Z,100302.81
2023-03-30T21:15:02.494Z,100297.47
2023-03-30T21:20:08.098Z,100296.31
2023-03-30T21:25:09.772Z,100283.44
2023-03-30T21:30:12.152Z,100265.00
2023-03-30T21:35:13.533Z,100261.97
2023-03-30T21:40:15.006Z,100251.75
2023-03-30T21:45:17.804Z,100253.00
2023-03-30T21:50:19.150Z,100247.38
2023-03-30T21:55:20.458Z,100243.78
2023-03-30T22:00:21.817Z,100233.16
2023-03-30T22:05:23.123Z,100241.47
2023-03-30T22:10:24.422Z,100224.03
2023-03-30T22:15:26.098Z,100220.28
2023-03-30T22:20:28.671Z,100223.88
2023-03-30T22:25:30.348Z,100214.66
2023-03-30T22:30:31.795Z,100208.22
2023-03-30T22:35:37.410Z,100198.19
2023-03-30T22:40:41.753Z,100183.88
2023-03-30T22:45:43.345Z,100180.03
2023-03-30T22:50:44.690Z,100176.41
2023-03-30T22:55:47.118Z,100171.56
2023-03-30T23:00:48.480Z,100159.06
2023-03-30T23:05:51.565Z,100160.28
2023-03-30T23:10:53.927Z,100149.44
2023-03-30T23:15:56.164Z,100152.41
2023-03-30T23:20:57.869Z,100140.47
2023-03-30T23:26:02.670Z,100134.19
2023-03-30T23:31:12.058Z,100138.75
2023-03-30T23:36:14.249Z,100128.44
2023-03-30T23:41:16.972Z,100123.06
2023-03-30T23:46:19.736Z,100115.81
2023-03-30T23:51:21.273Z,100101.28
2023-03-30T23:56:25.735Z,100095.31
